sensor_id;sensor_type;location;lat;lon;timestamp;temperature;humidity
44767;DHT22;30487;48.716;9.272;2023-04-03T00:02:12;6.80;99.90
44767;DHT22;30487;48.716;9.272;2023-04-03T00:04:38;6.90;99.90
44767;DHT22;30487;48.716;9.272;2023-04-03T00:07:04;6.80;99.90
44767;DHT22;30487;48.716;9.272;2023-04-03T00:09:29;6.80;99.90
44767;DHT22;30487;48.716;9.272;2023-04-03T00:11:55;6.70;99.90
44767;DHT22;30487;48.716;9.272;2023-04-03T00:14:21;6.80;99.90
44767;DHT22;30487;48.716;9.272;2023-04-03T00:16:46;6.70;99.90
44767;DHT22;30487;48.716;9.272;2023-04-03T00:19:12;6.70;99.90
44767;DHT22;30487;48.716;9.272;2023-04-03T00:21:38;6.70;99.90
44767;DHT22;30487;48.716;9.272;2023-04-03T00:24:03;6.70;99.90
44767;DHT22;30487;48.716;9.272;2023-04-03T00:26:29;6.70;99.90
44767;DHT22;30487;48.716;9.272;2023-04-03T00:28:55;6.70;99.90
44767;DHT22;30487;48.716;9.272;2023-04-03T00:31:21;6.70;99.90
44767;DHT22;30487;48.716;9.272;2023-04-03T00:33:47;6.70;99.90
44767;DHT22;30487;48.716;9.272;2023-04-03T00:36:12;6.70;99.90
44767;DHT22;30487;48.716;9.272;2023-04-03T00:38:38;6.70;99.90
44767;DHT22;30487;48.716;9.272;2023-04-03T00:41:04;6.70;99.90
44767;DHT22;30487;48.716;9.272;2023-04-03T00:43:30;6.60;99.90
44767;DHT22;30487;48.716;9.272;2023-04-03T00:45:57;6.60;99.90
44767;DHT22;30487;48.716;9.272;2023-04-03T00:48:39;6.60;99.90
44767;DHT22;30487;48.716;9.272;2023-04-03T00:51:09;6.50;99.90
44767;DHT22;30487;48.716;9.272;2023-04-03T00:53:40;6.50;99.90
44767;DHT22;30487;48.716;9.272;2023-04-03T00:56:07;6.60;99.90
44767;DHT22;30487;48.716;9.272;2023-04-03T00:58:42;6.50;99.90
44767;DHT22;30487;48.716;9.272;2023-04-03T01:01:13;6.60;99.90
44767;DHT22;30487;48.716;9.272;2023-04-03T01:03:40;6.50;99.90
44767;DHT22;30487;48.716;9.272;2023-04-03T01:06:06;6.50;99.90
44767;DHT22;30487;48.716;9.272;2023-04-03T01:08:31;6.60;99.90
44767;DHT22;30487;48.716;9.272;2023-04-03T01:10:57;6.60;99.90
44767;DHT22;30487;48.716;9.272;2023-04-03T01:13:31;6.50;99.90
44767;DHT22;30487;48.716;9.272;2023-04-03T01:16:01;6.50;99.90
44767;DHT22;30487;48.716;9.272;2023-04-03T01:18:27;6.40;99.90
44767;DHT22;30487;48.716;9.272;2023-04-03T01:21:11;6.50;99.90
44767;DHT22;30487;48.716;9.272;2023-04-03T01:26:27;6.50;99.90
44767;DHT22;30487;48.716;9.272;2023-04-03T01:28:54;6.40;99.90
44767;DHT22;30487;48.716;9.272;2023-04-03T01:31:43;6.40;99.90
44767;DHT22;30487;48.716;9.272;2023-04-03T01:34:09;6.40;99.90
44767;DHT22;30487;48.716;9.272;2023-04-03T01:36:35;6.40;99.90
44767;DHT22;30487;48.716;9.272;2023-04-03T01:39:01;6.40;99.90
44767;DHT22;30487;48.716;9.272;2023-04-03T01:41:27;6.40;99.90
44767;DHT22;30487;48.716;9.272;2023-04-03T01:43:52;6.40;99.90
44767;DHT22;30487;48.716;9.272;2023-04-03T01:46:19;6.40;99.90
44767;DHT22;30487;48.716;9.272;2023-04-03T01:48:45;6.40;99.90
44767;DHT22;30487;48.716;9.272;2023-04-03T01:51:11;6.40;99.90
44767;DHT22;30487;48.716;9.272;2023-04-03T01:53:36;6.30;99.90
44767;DHT22;30487;48.716;9.272;2023-04-03T01:56:02;6.30;99.90
44767;DHT22;30487;48.716;9.272;2023-04-03T01:58:28;6.30;99.90
44767;DHT22;30487;48.716;9.272;2023-04-03T02:00:53;6.30;99.90
44767;DHT22;30487;48.716;9.272;2023-04-03T02:03:19;6.30;99.90
44767;DHT22;30487;48.716;9.272;2023-04-03T02:05:45;6.30;99.90
44767;DHT22;30487;48.716;9.272;2023-04-03T02:08:11;6.20;99.90
44767;DHT22;30487;48.716;9.272;2023-04-03T02:10:37;6.20;99.90
44767;DHT22;30487;48.716;9.272;2023-04-03T02:13:02;6.30;99.90
44767;DHT22;30487;48.716;9.272;2023-04-03T02:15:28;6.30;99.90
44767;DHT22;30487;48.716;9.272;2023-04-03T02:17:53;6.30;99.90
44767;DHT22;30487;48.716;9.272;2023-04-03T02:20:19;6.30;99.90
44767;DHT22;30487;48.716;9.272;2023-04-03T02:22:45;6.20;99.90
44767;DHT22;30487;48.716;9.272;2023-04-03T02:25:11;6.20;99.90
44767;DHT22;30487;48.716;9.272;2023-04-03T02:27:38;6.30;99.90
44767;DHT22;30487;48.716;9.272;2023-04-03T02:30:04;6.30;99.90
44767;DHT22;30487;48.716;9.272;2023-04-03T02:32:30;6.30;99.90
44767;DHT22;30487;48.716;9.272;2023-04-03T02:34:56;6.20;99.90
44767;DHT22;30487;48.716;9.272;2023-04-03T02:37:22;6.20;99.90
44767;DHT22;30487;48.716;9.272;2023-04-03T02:39:47;6.20;99.90
44767;DHT22;30487;48.716;9.272;2023-04-03T02:42:13;6.20;99.90
44767;DHT22;30487;48.716;9.272;2023-04-03T02:44:39;6.20;99.90
44767;DHT22;30487;48.716;9.272;2023-04-03T02:47:05;6.20;99.90
44767;DHT22;30487;48.716;9.272;2023-04-03T02:49:30;6.20;99.90
44767;DHT22;30487;48.716;9.272;2023-04-03T02:51:56;6.20;99.90
44767;DHT22;30487;48.716;9.272;2023-04-03T02:54:22;6.20;99.90
44767;DHT22;30487;48.716;9.272;2023-04-03T02:56:49;6.10;99.90
44767;DHT22;30487;48.716;9.272;2023-04-03T02:59:15;6.20;99.90
44767;DHT22;30487;48.716;9.272;2023-04-03T03:01:41;6.20;99.90
44767;DHT22;30487;48.716;9.272;2023-04-03T03:04:06;6.20;99.90
44767;DHT22;30487;48.716;9.272;2023-04-03T03:06:32;6.20;99.90
44767;DHT22;30487;48.716;9.272;2023-04-03T03:08:58;6.20;99.90
44767;DHT22;30487;48.716;9.272;2023-04-03T03:11:23;6.20;99.90
44767;DHT22;30487;48.716;9.272;2023-04-03T03:13:50;6.20;99.90
44767;DHT22;30487;48.716;9.272;2023-04-03T03:16:15;6.10;99.90
44767;DHT22;30487;48.716;9.272;2023-04-03T03:18:41;6.10;99.90
44767;DHT22;30487;48.716;9.272;2023-04-03T03:21:08;6.10;99.90
44767;DHT22;30487;48.716;9.272;2023-04-03T03:23:34;6.20;99.90
44767;DHT22;30487;48.716;9.272;2023-04-03T03:26:05;6.20;99.90
44767;DHT22;30487;48.716;9.272;2023-04-03T03:28:32;6.10;99.90
44767;DHT22;30487;48.716;9.272;2023-04-03T03:30:58;6.10;99.90
44767;DHT22;30487;48.716;9.272;2023-04-03T03:33:24;6.10;99.90
44767;DHT22;30487;48.716;9.272;2023-04-03T03:35:51;6.10;99.90
44767;DHT22;30487;48.716;9.272;2023-04-03T03:38:17;6.10;99.90
44767;DHT22;30487;48.716;9.272;2023-04-03T03:40:42;6.10;99.90
44767;DHT22;30487;48.716;9.272;2023-04-03T03:43:08;6.10;99.90
44767;DHT22;30487;48.716;9.272;2023-04-03T03:45:33;6.10;99.90
44767;DHT22;30487;48.716;9.272;2023-04-03T03:48:00;6.10;99.90
44767;DHT22;30487;48.716;9.272;2023-04-03T03:50:25;6.10;99.90
44767;DHT22;30487;48.716;9.272;2023-04-03T03:52:51;6.10;99.90
44767;DHT22;30487;48.716;9.272;2023-04-03T03:55:16;6.10;99.90
44767;DHT22;30487;48.716;9.272;2023-04-03T03:57:42;6.10;99.90
44767;DHT22;30487;48.716;9.272;2023-04-03T04:00:09;6.10;99.90
44767;DHT22;30487;48.716;9.272;2023-04-03T04:02:35;6.10;99.90
44767;DHT22;30487;48.716;9.272;2023-04-03T04:05:00;6.10;99.90
44767;DHT22;30487;48.716;9.272;2023-04-03T04:07:26;6.00;99.90
44767;DHT22;30487;48.716;9.272;2023-04-03T04:09:53;6.00;99.90
44767;DHT22;30487;48.716;9.272;2023-04-03T04:12:19;6.10;99.90
44767;DHT22;30487;48.716;9.272;2023-04-03T04:14:45;6.10;99.90
44767;DHT22;30487;48.716;9.272;2023-04-03T04:17:15;6.10;99.90
44767;DHT22;30487;48.716;9.272;2023-04-03T04:19:40;6.10;99.90
44767;DHT22;30487;48.716;9.272;2023-04-03T04:22:06;6.10;99.90
44767;DHT22;30487;48.716;9.272;2023-04-03T04:24:32;6.10;99.90
44767;DHT22;30487;48.716;9.272;2023-04-03T04:26:57;6.10;99.90
44767;DHT22;30487;48.716;9.272;2023-04-03T04:29:23;6.00;99.90
44767;DHT22;30487;48.716;9.272;2023-04-03T04:31:48;6.00;99.90
44767;DHT22;30487;48.716;9.272;2023-04-03T04:34:14;6.00;99.90
44767;DHT22;30487;48.716;9.272;2023-04-03T04:36:40;6.10;99.90
44767;DHT22;30487;48.716;9.272;2023-04-03T04:39:06;6.00;99.90
44767;DHT22;30487;48.716;9.272;2023-04-03T04:41:32;6.10;99.90
44767;DHT22;30487;48.716;9.272;2023-04-03T04:43:57;6.10;99.90
44767;DHT22;30487;48.716;9.272;2023-04-03T04:46:23;6.10;99.90
44767;DHT22;30487;48.716;9.272;2023-04-03T04:48:49;6.10;99.90
44767;DHT22;30487;48.716;9.272;2023-04-03T04:51:15;6.10;99.90
44767;DHT22;30487;48.716;9.272;2023-04-03T04:53:41;6.20;99.90
44767;DHT22;30487;48.716;9.272;2023-04-03T04:56:07;6.10;99.90
44767;DHT22;30487;48.716;9.272;2023-04-03T04:58:33;6.10;99.90
44767;DHT22;30487;48.716;9.272;2023-04-03T05:01:03;6.10;99.90
44767;DHT22;30487;48.716;9.272;2023-04-03T05:03:29;6.10;99.90
44767;DHT22;30487;48.716;9.272;2023-04-03T05:05:55;6.10;99.90
44767;DHT22;30487;48.716;9.272;2023-04-03T05:08:21;6.10;99.90
44767;DHT22;30487;48.716;9.272;2023-04-03T05:10:47;6.10;99.90
44767;DHT22;30487;48.716;9.272;2023-04-03T05:13:12;6.10;99.90
44767;DHT22;30487;48.716;9.272;2023-04-03T05:15:38;6.10;99.90
44767;DHT22;30487;48.716;9.272;2023-04-03T05:18:04;6.10;99.90
44767;DHT22;30487;48.716;9.272;2023-04-03T05:20:30;6.20;99.90
44767;DHT22;30487;48.716;9.272;2023-04-03T05:22:56;6.10;99.90
44767;DHT22;30487;48.716;9.272;2023-04-03T05:25:22;6.10;99.90
44767;DHT22;30487;48.716;9.272;2023-04-03T05:27:47;6.20;99.90
44767;DHT22;30487;48.716;9.272;2023-04-03T05:30:13;6.20;99.90
44767;DHT22;30487;48.716;9.272;2023-04-03T05:32:39;6.20;99.90
44767;DHT22;30487;48.716;9.272;2023-04-03T05:35:05;6.20;99.90
44767;DHT22;30487;48.716;9.272;2023-04-03T05:37:31;6.30;99.90
44767;DHT22;30487;48.716;9.272;2023-04-03T05:39:57;6.30;99.80
44767;DHT22;30487;48.716;9.272;2023-04-03T05:42:23;6.30;99.70
44767;DHT22;30487;48.716;9.272;2023-04-03T05:44:48;6.40;99.70
44767;DHT22;30487;48.716;9.272;2023-04-03T05:47:15;6.50;99.50
44767;DHT22;30487;48.716;9.272;2023-04-03T05:49:41;6.50;99.40
44767;DHT22;30487;48.716;9.272;2023-04-03T05:52:29;6.50;99.20
44767;DHT22;30487;48.716;9.272;2023-04-03T05:54:55;6.60;98.90
44767;DHT22;30487;48.716;9.272;2023-04-03T05:57:21;6.60;99.00
44767;DHT22;30487;48.716;9.272;2023-04-03T05:59:47;6.70;99.00
44767;DHT22;30487;48.716;9.272;2023-04-03T06:02:16;6.70;99.80
44767;DHT22;30487;48.716;9.272;2023-04-03T06:04:42;6.70;99.90
44767;DHT22;30487;48.716;9.272;2023-04-03T06:07:12;6.70;99.90
44767;DHT22;30487;48.716;9.272;2023-04-03T06:09:38;6.80;99.90
44767;DHT22;30487;48.716;9.272;2023-04-03T06:12:04;6.70;99.70
44767;DHT22;30487;48.716;9.272;2023-04-03T06:14:30;6.70;99.50
44767;DHT22;30487;48.716;9.272;2023-04-03T06:16:56;6.70;99.10
44767;DHT22;30487;48.716;9.272;2023-04-03T06:19:21;6.80;99.10
44767;DHT22;30487;48.716;9.272;2023-04-03T06:21:47;6.80;98.80
44767;DHT22;30487;48.716;9.272;2023-04-03T06:24:15;6.90;98.60
44767;DHT22;30487;48.716;9.272;2023-04-03T06:26:41;6.90;98.50
44767;DHT22;30487;48.716;9.272;2023-04-03T06:29:07;6.90;98.50
44767;DHT22;30487;48.716;9.272;2023-04-03T06:31:33;6.90;98.50
44767;DHT22;30487;48.716;9.272;2023-04-03T06:33:58;7.00;98.60
44767;DHT22;30487;48.716;9.272;2023-04-03T06:36:24;7.00;98.40
44767;DHT22;30487;48.716;9.272;2023-04-03T06:38:50;7.10;98.20
44767;DHT22;30487;48.716;9.272;2023-04-03T06:41:16;7.10;98.40
44767;DHT22;30487;48.716;9.272;2023-04-03T06:43:42;7.10;98.40
44767;DHT22;30487;48.716;9.272;2023-04-03T06:46:21;7.10;98.20
44767;DHT22;30487;48.716;9.272;2023-04-03T06:48:48;7.20;98.10
44767;DHT22;30487;48.716;9.272;2023-04-03T06:53:44;7.10;98.00
44767;DHT22;30487;48.716;9.272;2023-04-03T06:56:11;7.20;97.90
44767;DHT22;30487;48.716;9.272;2023-04-03T06:58:36;7.20;97.80
44767;DHT22;30487;48.716;9.272;2023-04-03T07:01:02;7.20;97.70
44767;DHT22;30487;48.716;9.272;2023-04-03T07:03:28;7.30;97.80
44767;DHT22;30487;48.716;9.272;2023-04-03T07:05:53;7.40;97.60
44767;DHT22;30487;48.716;9.272;2023-04-03T07:08:19;7.40;97.60
44767;DHT22;30487;48.716;9.272;2023-04-03T07:10:45;7.40;97.60
44767;DHT22;30487;48.716;9.272;2023-04-03T07:13:10;7.40;97.60
44767;DHT22;30487;48.716;9.272;2023-04-03T07:15:36;7.50;97.60
44767;DHT22;30487;48.716;9.272;2023-04-03T07:18:02;7.50;97.60
44767;DHT22;30487;48.716;9.272;2023-04-03T07:20:27;7.50;97.70
44767;DHT22;30487;48.716;9.272;2023-04-03T07:22:53;7.60;97.50
44767;DHT22;30487;48.716;9.272;2023-04-03T07:25:19;7.60;97.60
44767;DHT22;30487;48.716;9.272;2023-04-03T07:27:44;7.70;97.60
44767;DHT22;30487;48.716;9.272;2023-04-03T07:30:10;7.70;97.50
44767;DHT22;30487;48.716;9.272;2023-04-03T07:32:36;7.80;97.40
44767;DHT22;30487;48.716;9.272;2023-04-03T07:35:03;7.80;97.30
44767;DHT22;30487;48.716;9.272;2023-04-03T07:37:28;7.90;97.30
44767;DHT22;30487;48.716;9.272;2023-04-03T07:39:54;8.00;97.20
44767;DHT22;30487;48.716;9.272;2023-04-03T07:42:20;8.10;97.00
44767;DHT22;30487;48.716;9.272;2023-04-03T07:44:46;8.30;96.90
44767;DHT22;30487;48.716;9.272;2023-04-03T07:47:12;8.30;96.60
44767;DHT22;30487;48.716;9.272;2023-04-03T07:49:39;8.40;96.70
44767;DHT22;30487;48.716;9.272;2023-04-03T07:52:06;8.60;96.50
44767;DHT22;30487;48.716;9.272;2023-04-03T07:54:34;8.60;96.30
44767;DHT22;30487;48.716;9.272;2023-04-03T07:57:00;8.70;96.50
44767;DHT22;30487;48.716;9.272;2023-04-03T07:59:26;8.80;96.40
44767;DHT22;30487;48.716;9.272;2023-04-03T08:01:52;9.00;96.10
44767;DHT22;30487;48.716;9.272;2023-04-03T08:04:18;9.10;96.00
44767;DHT22;30487;48.716;9.272;2023-04-03T08:06:43;9.20;95.90
44767;DHT22;30487;48.716;9.272;2023-04-03T08:09:09;9.30;95.60
44767;DHT22;30487;48.716;9.272;2023-04-03T08:11:34;9.40;95.40
44767;DHT22;30487;48.716;9.272;2023-04-03T08:14:01;9.60;95.20
44767;DHT22;30487;48.716;9.272;2023-04-03T08:16:28;9.70;95.00
44767;DHT22;30487;48.716;9.272;2023-04-03T08:18:54;9.80;94.80
44767;DHT22;30487;48.716;9.272;2023-04-03T08:21:20;9.80;94.60
44767;DHT22;30487;48.716;9.272;2023-04-03T08:23:48;9.90;94.40
44767;DHT22;30487;48.716;9.272;2023-04-03T08:26:17;9.90;94.20
44767;DHT22;30487;48.716;9.272;2023-04-03T08:28:43;10.00;94.10
44767;DHT22;30487;48.716;9.272;2023-04-03T08:31:12;10.00;94.00
44767;DHT22;30487;48.716;9.272;2023-04-03T08:33:39;10.00;93.90
44767;DHT22;30487;48.716;9.272;2023-04-03T08:36:06;10.00;94.00
44767;DHT22;30487;48.716;9.272;2023-04-03T08:38:33;10.00;93.90
44767;DHT22;30487;48.716;9.272;2023-04-03T08:46:58;10.30;93.80
44767;DHT22;30487;48.716;9.272;2023-04-03T08:52:03;10.40;93.50
44767;DHT22;30487;48.716;9.272;2023-04-03T08:54:50;10.50;93.00
44767;DHT22;30487;48.716;9.272;2023-04-03T08:57:16;10.60;93.10
44767;DHT22;30487;48.716;9.272;2023-04-03T08:59:43;10.70;92.90
44767;DHT22;30487;48.716;9.272;2023-04-03T09:02:58;10.70;92.30
44767;DHT22;30487;48.716;9.272;2023-04-03T09:05:32;10.70;92.10
44767;DHT22;30487;48.716;9.272;2023-04-03T09:08:09;10.60;92.20
44767;DHT22;30487;48.716;9.272;2023-04-03T09:10:38;10.60;92.10
44767;DHT22;30487;48.716;9.272;2023-04-03T09:13:12;10.50;92.20
44767;DHT22;30487;48.716;9.272;2023-04-03T09:15:38;10.60;92.00
44767;DHT22;30487;48.716;9.272;2023-04-03T09:18:36;10.70;92.00
44767;DHT22;30487;48.716;9.272;2023-04-03T09:21:19;10.80;91.60
44767;DHT22;30487;48.716;9.272;2023-04-03T09:23:51;10.80;91.40
44767;DHT22;30487;48.716;9.272;2023-04-03T09:26:23;10.80;91.60
44767;DHT22;30487;48.716;9.272;2023-04-03T09:28:53;10.90;91.70
44767;DHT22;30487;48.716;9.272;2023-04-03T09:31:23;10.90;91.70
44767;DHT22;30487;48.716;9.272;2023-04-03T09:34:03;10.90;91.70
44767;DHT22;30487;48.716;9.272;2023-04-03T09:36:49;11.10;91.20
44767;DHT22;30487;48.716;9.272;2023-04-03T09:39:19;11.20;91.00
44767;DHT22;30487;48.716;9.272;2023-04-03T09:42:02;11.40;90.30
44767;DHT22;30487;48.716;9.272;2023-04-03T09:44:33;11.50;89.40
44767;DHT22;30487;48.716;9.272;2023-04-03T09:46:59;11.70;88.90
44767;DHT22;30487;48.716;9.272;2023-04-03T09:49:25;11.70;88.00
44767;DHT22;30487;48.716;9.272;2023-04-03T09:51:51;11.70;87.20
44767;DHT22;30487;48.716;9.272;2023-04-03T09:54:38;11.60;87.30
44767;DHT22;30487;48.716;9.272;2023-04-03T09:57:13;11.70;87.50
44767;DHT22;30487;48.716;9.272;2023-04-03T10:04:42;11.60;85.10
44767;DHT22;30487;48.716;9.272;2023-04-03T10:07:31;11.50;84.60
44767;DHT22;30487;48.716;9.272;2023-04-03T10:09:58;11.40;83.60
44767;DHT22;30487;48.716;9.272;2023-04-03T10:12:24;11.40;83.70
44767;DHT22;30487;48.716;9.272;2023-04-03T10:20:16;11.10;85.00
44767;DHT22;30487;48.716;9.272;2023-04-03T10:23:50;11.10;84.90
44767;DHT22;30487;48.716;9.272;2023-04-03T10:30:20;11.00;83.70
44767;DHT22;30487;48.716;9.272;2023-04-03T10:32:49;10.80;82.70
44767;DHT22;30487;48.716;9.272;2023-04-03T10:41:34;10.60;83.00
44767;DHT22;30487;48.716;9.272;2023-04-03T10:44:17;10.50;84.00
44767;DHT22;30487;48.716;9.272;2023-04-03T10:46:49;10.50;83.10
44767;DHT22;30487;48.716;9.272;2023-04-03T10:51:50;10.40;83.40
44767;DHT22;30487;48.716;9.272;2023-04-03T10:54:26;10.20;83.50
44767;DHT22;30487;48.716;9.272;2023-04-03T10:57:04;10.20;83.80
44767;DHT22;30487;48.716;9.272;2023-04-03T10:59:34;10.10;84.10
44767;DHT22;30487;48.716;9.272;2023-04-03T11:02:15;9.90;84.90
44767;DHT22;30487;48.716;9.272;2023-04-03T11:04:46;9.90;85.90
44767;DHT22;30487;48.716;9.272;2023-04-03T11:07:15;9.80;86.20
44767;DHT22;30487;48.716;9.272;2023-04-03T11:09:44;9.80;86.30
44767;DHT22;30487;48.716;9.272;2023-04-03T11:12:28;9.90;85.60
44767;DHT22;30487;48.716;9.272;2023-04-03T11:14:57;9.80;84.70
44767;DHT22;30487;48.716;9.272;2023-04-03T11:17:37;9.80;84.60
44767;DHT22;30487;48.716;9.272;2023-04-03T11:20:14;9.80;84.70
44767;DHT22;30487;48.716;9.272;2023-04-03T11:22:45;9.70;84.50
44767;DHT22;30487;48.716;9.272;2023-04-03T11:27:49;9.60;84.60
44767;DHT22;30487;48.716;9.272;2023-04-03T11:30:24;9.70;84.30
44767;DHT22;30487;48.716;9.272;2023-04-03T11:35:29;9.80;83.10
44767;DHT22;30487;48.716;9.272;2023-04-03T11:37:56;9.80;82.80
44767;DHT22;30487;48.716;9.272;2023-04-03T11:40:25;9.80;82.30
44767;DHT22;30487;48.716;9.272;2023-04-03T11:42:55;9.90;82.40
44767;DHT22;30487;48.716;9.272;2023-04-03T11:48:00;10.00;81.50
44767;DHT22;30487;48.716;9.272;2023-04-03T12:00:49;9.90;80.30
44767;DHT22;30487;48.716;9.272;2023-04-03T12:05:53;9.80;79.60
44767;DHT22;30487;48.716;9.272;2023-04-03T12:26:46;10.00;78.70
44767;DHT22;30487;48.716;9.272;2023-04-03T12:45:42;11.10;77.80
44767;DHT22;30487;48.716;9.272;2023-04-03T12:48:12;11.10;78.00
44767;DHT22;30487;48.716;9.272;2023-04-03T12:50:40;11.10;77.70
44767;DHT22;30487;48.716;9.272;2023-04-03T12:53:16;11.00;76.90
44767;DHT22;30487;48.716;9.272;2023-04-03T12:55:44;11.10;76.50
44767;DHT22;30487;48.716;9.272;2023-04-03T13:01:11;11.10;76.20
44767;DHT22;30487;48.716;9.272;2023-04-03T13:03:40;11.10;75.90
44767;DHT22;30487;48.716;9.272;2023-04-03T13:06:06;11.10;74.40
44767;DHT22;30487;48.716;9.272;2023-04-03T13:08:32;11.10;74.20
44767;DHT22;30487;48.716;9.272;2023-04-03T13:13:29;11.30;74.00
44767;DHT22;30487;48.716;9.272;2023-04-03T13:15:55;11.50;74.00
44767;DHT22;30487;48.716;9.272;2023-04-03T13:18:33;11.80;72.80
44767;DHT22;30487;48.716;9.272;2023-04-03T13:21:17;12.00;72.60
44767;DHT22;30487;48.716;9.272;2023-04-03T13:23:47;12.00;72.30
44767;DHT22;30487;48.716;9.272;2023-04-03T13:26:17;11.80;73.10
44767;DHT22;30487;48.716;9.272;2023-04-03T13:28:45;11.60;73.90
44767;DHT22;30487;48.716;9.272;2023-04-03T13:31:22;11.40;74.10
44767;DHT22;30487;48.716;9.272;2023-04-03T13:36:31;11.00;74.60
44767;DHT22;30487;48.716;9.272;2023-04-03T13:41:48;10.90;75.10
44767;DHT22;30487;48.716;9.272;2023-04-03T13:46:42;11.10;74.70
44767;DHT22;30487;48.716;9.272;2023-04-03T13:49:22;11.30;73.80
44767;DHT22;30487;48.716;9.272;2023-04-03T13:51:53;11.40;73.30
44767;DHT22;30487;48.716;9.272;2023-04-03T13:54:25;11.40;72.60
44767;DHT22;30487;48.716;9.272;2023-04-03T13:56:56;11.30;72.50
44767;DHT22;30487;48.716;9.272;2023-04-03T14:04:31;11.20;71.60
44767;DHT22;30487;48.716;9.272;2023-04-03T14:06:58;11.20;71.10
44767;DHT22;30487;48.716;9.272;2023-04-03T14:09:26;11.30;71.00
44767;DHT22;30487;48.716;9.272;2023-04-03T14:11:57;11.30;71.20
44767;DHT22;30487;48.716;9.272;2023-04-03T14:14:27;11.40;71.10
44767;DHT22;30487;48.716;9.272;2023-04-03T14:16:58;11.40;71.00
44767;DHT22;30487;48.716;9.272;2023-04-03T14:19:35;11.50;71.00
44767;DHT22;30487;48.716;9.272;2023-04-03T14:22:11;11.50;71.60
44767;DHT22;30487;48.716;9.272;2023-04-03T14:24:37;11.50;71.60
44767;DHT22;30487;48.716;9.272;2023-04-03T14:27:32;11.40;71.50
44767;DHT22;30487;48.716;9.272;2023-04-03T14:29:59;11.40;71.40
44767;DHT22;30487;48.716;9.272;2023-04-03T14:32:25;11.40;71.60
44767;DHT22;30487;48.716;9.272;2023-04-03T14:34:52;11.50;71.10
44767;DHT22;30487;48.716;9.272;2023-04-03T14:37:23;11.50;70.40
44767;DHT22;30487;48.716;9.272;2023-04-03T14:39:51;11.70;69.70
44767;DHT22;30487;48.716;9.272;2023-04-03T14:42:21;11.80;69.30
44767;DHT22;30487;48.716;9.272;2023-04-03T14:44:47;12.30;69.80
44767;DHT22;30487;48.716;9.272;2023-04-03T14:47:15;12.60;70.10
44767;DHT22;30487;48.716;9.272;2023-04-03T14:49:42;12.70;69.60
44767;DHT22;30487;48.716;9.272;2023-04-03T14:52:23;12.70;69.20
44767;DHT22;30487;48.716;9.272;2023-04-03T14:54:50;12.50;69.20
44767;DHT22;30487;48.716;9.272;2023-04-03T14:57:17;12.20;69.80
44767;DHT22;30487;48.716;9.272;2023-04-03T14:59:46;12.10;70.20
44767;DHT22;30487;48.716;9.272;2023-04-03T15:04:58;11.70;70.10
44767;DHT22;30487;48.716;9.272;2023-04-03T15:07:26;11.60;70.20
44767;DHT22;30487;48.716;9.272;2023-04-03T15:09:52;11.50;70.70
44767;DHT22;30487;48.716;9.272;2023-04-03T15:12:18;11.40;71.00
44767;DHT22;30487;48.716;9.272;2023-04-03T15:14:44;11.30;70.60
44767;DHT22;30487;48.716;9.272;2023-04-03T15:17:18;11.40;70.80
44767;DHT22;30487;48.716;9.272;2023-04-03T15:19:44;11.40;70.40
44767;DHT22;30487;48.716;9.272;2023-04-03T15:22:15;11.30;69.60
44767;DHT22;30487;48.716;9.272;2023-04-03T15:24:42;11.30;69.50
44767;DHT22;30487;48.716;9.272;2023-04-03T15:27:08;11.30;69.50
44767;DHT22;30487;48.716;9.272;2023-04-03T15:29:34;11.10;69.40
44767;DHT22;30487;48.716;9.272;2023-04-03T15:31:59;11.10;69.40
44767;DHT22;30487;48.716;9.272;2023-04-03T15:34:25;11.10;69.10
44767;DHT22;30487;48.716;9.272;2023-04-03T15:36:51;11.20;68.80
44767;DHT22;30487;48.716;9.272;2023-04-03T15:39:17;11.10;68.90
44767;DHT22;30487;48.716;9.272;2023-04-03T15:41:44;11.00;69.20
44767;DHT22;30487;48.716;9.272;2023-04-03T15:44:10;11.00;69.60
44767;DHT22;30487;48.716;9.272;2023-04-03T15:46:37;10.90;69.70
44767;DHT22;30487;48.716;9.272;2023-04-03T15:49:04;11.00;69.60
44767;DHT22;30487;48.716;9.272;2023-04-03T15:51:30;10.90;69.60
44767;DHT22;30487;48.716;9.272;2023-04-03T15:53:55;10.90;69.60
44767;DHT22;30487;48.716;9.272;2023-04-03T15:56:21;11.00;69.60
44767;DHT22;30487;48.716;9.272;2023-04-03T15:58:46;11.00;69.50
44767;DHT22;30487;48.716;9.272;2023-04-03T16:01:12;11.00;69.30
44767;DHT22;30487;48.716;9.272;2023-04-03T16:03:40;11.10;69.70
44767;DHT22;30487;48.716;9.272;2023-04-03T16:06:14;11.10;69.50
44767;DHT22;30487;48.716;9.272;2023-04-03T16:08:40;11.20;69.20
44767;DHT22;30487;48.716;9.272;2023-04-03T16:11:06;11.00;68.40
44767;DHT22;30487;48.716;9.272;2023-04-03T16:13:32;10.90;68.90
44767;DHT22;30487;48.716;9.272;2023-04-03T16:15:59;10.90;68.10
44767;DHT22;30487;48.716;9.272;2023-04-03T16:18:26;10.80;68.00
44767;DHT22;30487;48.716;9.272;2023-04-03T16:20:51;10.60;68.00
44767;DHT22;30487;48.716;9.272;2023-04-03T16:23:17;10.50;67.80
44767;DHT22;30487;48.716;9.272;2023-04-03T16:25:43;10.40;68.00
44767;DHT22;30487;48.716;9.272;2023-04-03T16:28:12;10.30;68.10
44767;DHT22;30487;48.716;9.272;2023-04-03T16:30:40;10.30;68.10
44767;DHT22;30487;48.716;9.272;2023-04-03T16:33:05;10.20;68.10
44767;DHT22;30487;48.716;9.272;2023-04-03T16:35:31;10.20;68.60
44767;DHT22;30487;48.716;9.272;2023-04-03T16:37:56;10.40;69.20
44767;DHT22;30487;48.716;9.272;2023-04-03T16:40:22;10.50;69.50
44767;DHT22;30487;48.716;9.272;2023-04-03T16:42:48;10.60;69.60
44767;DHT22;30487;48.716;9.272;2023-04-03T16:45:13;10.70;68.90
44767;DHT22;30487;48.716;9.272;2023-04-03T16:47:39;10.70;68.60
44767;DHT22;30487;48.716;9.272;2023-04-03T16:50:05;10.80;68.10
44767;DHT22;30487;48.716;9.272;2023-04-03T16:52:31;10.90;71.70
44767;DHT22;30487;48.716;9.272;2023-04-03T16:54:56;11.00;74.90
44767;DHT22;30487;48.716;9.272;2023-04-03T16:57:24;10.90;73.50
44767;DHT22;30487;48.716;9.272;2023-04-03T16:59:50;10.80;72.00
44767;DHT22;30487;48.716;9.272;2023-04-03T17:02:16;10.70;70.50
44767;DHT22;30487;48.716;9.272;2023-04-03T17:04:41;10.60;69.80
44767;DHT22;30487;48.716;9.272;2023-04-03T17:07:07;10.40;70.70
44767;DHT22;30487;48.716;9.272;2023-04-03T17:09:33;10.30;74.80
44767;DHT22;30487;48.716;9.272;2023-04-03T17:11:59;10.30;74.90
44767;DHT22;30487;48.716;9.272;2023-04-03T17:14:25;10.20;75.10
44767;DHT22;30487;48.716;9.272;2023-04-03T17:16:50;10.10;73.10
44767;DHT22;30487;48.716;9.272;2023-04-03T17:19:16;10.00;72.50
44767;DHT22;30487;48.716;9.272;2023-04-03T17:21:43;9.90;71.60
44767;DHT22;30487;48.716;9.272;2023-04-03T17:24:10;9.80;71.50
44767;DHT22;30487;48.716;9.272;2023-04-03T17:26:39;9.70;71.10
44767;DHT22;30487;48.716;9.272;2023-04-03T17:29:05;9.60;71.10
44767;DHT22;30487;48.716;9.272;2023-04-03T17:31:31;9.60;71.00
44767;DHT22;30487;48.716;9.272;2023-04-03T17:33:57;9.50;71.20
44767;DHT22;30487;48.716;9.272;2023-04-03T17:36:22;9.50;71.30
44767;DHT22;30487;48.716;9.272;2023-04-03T17:38:50;9.50;71.40
44767;DHT22;30487;48.716;9.272;2023-04-03T17:41:15;9.50;71.00